Kalgoorlie, Australia
Current Conditions -  °F | °C
As of 6:00 PM on Sunday 25 Jan 2015 (Local Time) from YPKG Reporting Station
Clear Clear  
Wind Chill: 84°   Ceiling: Unl
Heat Index: 84°   Visibility: 6mi
Dew Point: 37°   Wind: 14mph
Humidity: 19%   Direction: 120°ESE
Pressure: 29.91"   Gusts: NA
Location:  30.75°S, 121.47°E
Report Text: YPKG 251000Z AUTO 12012KT 9999 // NCD 29/03 Q1013
Loading
Personal Weather Stations






























Interactive Weather Map New forecast layout! Learn more

10-Day Weather Forecast

Advertisements
Track Severe Weather on mobile